sensor_id;sensor_type;location;lat;lon;timestamp;pressure;altitude;pressure_sealevel;temperature
73734;BMP280;62039;50.000;9.064;2022-08-11T00:01:58;100860.41;;;22.91
73734;BMP280;62039;50.000;9.064;2022-08-11T00:04:26;100867.81;;;22.89
73734;BMP280;62039;50.000;9.064;2022-08-11T00:07:01;100856.56;;;22.87
73734;BMP280;62039;50.000;9.064;2022-08-11T00:09:31;100861.31;;;22.85
73734;BMP280;62039;50.000;9.064;2022-08-11T00:12:11;100846.63;;;22.83
73734;BMP280;62039;50.000;9.064;2022-08-11T00:14:40;100856.09;;;22.79
73734;BMP280;62039;50.000;9.064;2022-08-11T00:17:10;100855.53;;;22.77
73734;BMP280;62039;50.000;9.064;2022-08-11T00:19:40;100846.72;;;22.76
73734;BMP280;62039;50.000;9.064;2022-08-11T00:22:27;100848.78;;;22.74
73734;BMP280;62039;50.000;9.064;2022-08-11T00:24:55;100845.53;;;22.72
73734;BMP280;62039;50.000;9.064;2022-08-11T00:27:32;100846.59;;;22.71
73734;BMP280;62039;50.000;9.064;2022-08-11T00:30:00;100846.22;;;22.67
73734;BMP280;62039;50.000;9.064;2022-08-11T00:32:27;100850.16;;;22.65
73734;BMP280;62039;50.000;9.064;2022-08-11T00:34:56;100843.44;;;22.62
73734;BMP280;62039;50.000;9.064;2022-08-11T00:37:46;100853.97;;;22.57
73734;BMP280;62039;50.000;9.064;2022-08-11T00:40:17;100858.94;;;22.54
73734;BMP280;62039;50.000;9.064;2022-08-11T00:42:54;100856.94;;;22.49
73734;BMP280;62039;50.000;9.064;2022-08-11T00:45:28;100842.66;;;22.44
73734;BMP280;62039;50.000;9.064;2022-08-11T00:48:02;100850.50;;;22.39
73734;BMP280;62039;50.000;9.064;2022-08-11T00:50:39;100842.84;;;22.30
73734;BMP280;62039;50.000;9.064;2022-08-11T00:53:29;100860.16;;;22.21
73734;BMP280;62039;50.000;9.064;2022-08-11T00:56:21;100854.94;;;22.15
73734;BMP280;62039;50.000;9.064;2022-08-11T01:02:17;100858.09;;;22.05
73734;BMP280;62039;50.000;9.064;2022-08-11T01:08:25;100859.06;;;21.92
73734;BMP280;62039;50.000;9.064;2022-08-11T01:14:23;100855.88;;;21.84
73734;BMP280;62039;50.000;9.064;2022-08-11T01:20:09;100865.34;;;21.80
73734;BMP280;62039;50.000;9.064;2022-08-11T01:32:51;100870.25;;;21.58
73734;BMP280;62039;50.000;9.064;2022-08-11T01:38:45;100867.09;;;21.49
73734;BMP280;62039;50.000;9.064;2022-08-11T01:41:30;100875.72;;;21.45
73734;BMP280;62039;50.000;9.064;2022-08-11T01:44:11;100865.75;;;21.40
73734;BMP280;62039;50.000;9.064;2022-08-11T01:46:45;100870.44;;;21.38
73734;BMP280;62039;50.000;9.064;2022-08-11T01:49:20;100877.03;;;21.36
73734;BMP280;62039;50.000;9.064;2022-08-11T01:52:16;100871.75;;;21.29
73734;BMP280;62039;50.000;9.064;2022-08-11T01:55:11;100871.56;;;21.24
73734;BMP280;62039;50.000;9.064;2022-08-11T01:57:43;100865.69;;;21.22
73734;BMP280;62039;50.000;9.064;2022-08-11T02:00:15;100873.03;;;21.20
73734;BMP280;62039;50.000;9.064;2022-08-11T02:02:48;100875.56;;;21.15
73734;BMP280;62039;50.000;9.064;2022-08-11T02:05:48;100868.44;;;21.09
73734;BMP280;62039;50.000;9.064;2022-08-11T02:08:33;100876.41;;;21.09
73734;BMP280;62039;50.000;9.064;2022-08-11T02:11:13;100879.50;;;21.06
73734;BMP280;62039;50.000;9.064;2022-08-11T02:13:45;100874.19;;;21.06
73734;BMP280;62039;50.000;9.064;2022-08-11T02:16:20;100878.88;;;21.04
73734;BMP280;62039;50.000;9.064;2022-08-11T02:18:51;100882.56;;;21.03
73734;BMP280;62039;50.000;9.064;2022-08-11T02:21:23;100879.34;;;21.01
73734;BMP280;62039;50.000;9.064;2022-08-11T02:23:58;100885.66;;;21.00
73734;BMP280;62039;50.000;9.064;2022-08-11T02:26:37;100881.59;;;20.97
73734;BMP280;62039;50.000;9.064;2022-08-11T02:29:12;100887.16;;;20.96
73734;BMP280;62039;50.000;9.064;2022-08-11T02:31:45;100870.81;;;20.92
73734;BMP280;62039;50.000;9.064;2022-08-11T02:34:43;100877.34;;;20.90
73734;BMP280;62039;50.000;9.064;2022-08-11T02:37:35;100862.69;;;20.87
73734;BMP280;62039;50.000;9.064;2022-08-11T02:40:15;100874.34;;;20.86
73734;BMP280;62039;50.000;9.064;2022-08-11T02:42:53;100863.91;;;20.85
73734;BMP280;62039;50.000;9.064;2022-08-11T02:45:41;100867.59;;;20.84
73734;BMP280;62039;50.000;9.064;2022-08-11T02:48:18;100870.25;;;20.84
73734;BMP280;62039;50.000;9.064;2022-08-11T02:50:52;100876.38;;;20.84
73734;BMP280;62039;50.000;9.064;2022-08-11T02:53:29;100869.69;;;20.82
73734;BMP280;62039;50.000;9.064;2022-08-11T02:56:05;100874.78;;;20.76
73734;BMP280;62039;50.000;9.064;2022-08-11T02:58:36;100871.94;;;20.71
73734;BMP280;62039;50.000;9.064;2022-08-11T03:01:14;100873.41;;;20.67
73734;BMP280;62039;50.000;9.064;2022-08-11T03:03:47;100868.97;;;20.61
73734;BMP280;62039;50.000;9.064;2022-08-11T03:06:23;100872.22;;;20.57
73734;BMP280;62039;50.000;9.064;2022-08-11T03:08:54;100873.50;;;20.54
73734;BMP280;62039;50.000;9.064;2022-08-11T03:11:37;100875.31;;;20.54
73734;BMP280;62039;50.000;9.064;2022-08-11T03:14:11;100870.22;;;20.52
73734;BMP280;62039;50.000;9.064;2022-08-11T03:16:45;100871.25;;;20.51
73734;BMP280;62039;50.000;9.064;2022-08-11T03:19:24;100874.94;;;20.50
73734;BMP280;62039;50.000;9.064;2022-08-11T03:22:01;100877.00;;;20.48
73734;BMP280;62039;50.000;9.064;2022-08-11T03:24:46;100869.44;;;20.45
73734;BMP280;62039;50.000;9.064;2022-08-11T03:27:27;100876.78;;;20.43
73734;BMP280;62039;50.000;9.064;2022-08-11T03:30:04;100871.94;;;20.40
73734;BMP280;62039;50.000;9.064;2022-08-11T03:32:36;100872.13;;;20.38
73734;BMP280;62039;50.000;9.064;2022-08-11T03:35:07;100875.19;;;20.35
73734;BMP280;62039;50.000;9.064;2022-08-11T03:37:47;100875.63;;;20.32
73734;BMP280;62039;50.000;9.064;2022-08-11T03:40:38;100874.66;;;20.27
73734;BMP280;62039;50.000;9.064;2022-08-11T03:43:17;100888.31;;;20.24
73734;BMP280;62039;50.000;9.064;2022-08-11T03:45:53;100879.78;;;20.22
73734;BMP280;62039;50.000;9.064;2022-08-11T03:48:28;100884.84;;;20.23
73734;BMP280;62039;50.000;9.064;2022-08-11T03:51:08;100879.78;;;20.22
73734;BMP280;62039;50.000;9.064;2022-08-11T03:54:10;100884.28;;;20.21
73734;BMP280;62039;50.000;9.064;2022-08-11T03:57:14;100894.47;;;20.18
73734;BMP280;62039;50.000;9.064;2022-08-11T04:00:19;100892.44;;;20.20
73734;BMP280;62039;50.000;9.064;2022-08-11T04:03:09;100896.09;;;20.19
73734;BMP280;62039;50.000;9.064;2022-08-11T04:09:41;100897.94;;;20.18
73734;BMP280;62039;50.000;9.064;2022-08-11T04:12:37;100897.13;;;20.18
73734;BMP280;62039;50.000;9.064;2022-08-11T04:15:36;100895.28;;;20.18
73734;BMP280;62039;50.000;9.064;2022-08-11T04:18:18;100905.06;;;20.18
73734;BMP280;62039;50.000;9.064;2022-08-11T04:21:10;100901.00;;;20.15
73734;BMP280;62039;50.000;9.064;2022-08-11T04:23:55;100897.56;;;20.15
73734;BMP280;62039;50.000;9.064;2022-08-11T04:27:00;100897.94;;;20.12
73734;BMP280;62039;50.000;9.064;2022-08-11T04:29:45;100898.94;;;20.11
73734;BMP280;62039;50.000;9.064;2022-08-11T04:32:56;100892.66;;;20.05
73734;BMP280;62039;50.000;9.064;2022-08-11T04:35:38;100903.47;;;20.04
73734;BMP280;62039;50.000;9.064;2022-08-11T04:38:23;100901.00;;;20.02
73734;BMP280;62039;50.000;9.064;2022-08-11T04:47:12;100906.75;;;19.92
73734;BMP280;62039;50.000;9.064;2022-08-11T04:50:04;100899.22;;;19.89
73734;BMP280;62039;50.000;9.064;2022-08-11T04:52:49;100896.78;;;19.88
73734;BMP280;62039;50.000;9.064;2022-08-11T04:56:08;100897.41;;;19.83
73734;BMP280;62039;50.000;9.064;2022-08-11T04:58:46;100902.69;;;19.83
73734;BMP280;62039;50.000;9.064;2022-08-11T05:01:22;100900.25;;;19.82
73734;BMP280;62039;50.000;9.064;2022-08-11T05:04:10;100903.13;;;19.80
73734;BMP280;62039;50.000;9.064;2022-08-11T05:07:20;100911.47;;;19.77
73734;BMP280;62039;50.000;9.064;2022-08-11T05:10:05;100903.53;;;19.77
73734;BMP280;62039;50.000;9.064;2022-08-11T05:12:40;100906.78;;;19.79
73734;BMP280;62039;50.000;9.064;2022-08-11T05:15:11;100905.78;;;19.80
73734;BMP280;62039;50.000;9.064;2022-08-11T05:17:42;100904.31;;;19.84
73734;BMP280;62039;50.000;9.064;2022-08-11T05:20:10;100908.19;;;19.88
73734;BMP280;62039;50.000;9.064;2022-08-11T05:22:43;100904.94;;;19.93
73734;BMP280;62039;50.000;9.064;2022-08-11T05:25:16;100914.91;;;19.97
73734;BMP280;62039;50.000;9.064;2022-08-11T05:28:08;100921.44;;;20.02
73734;BMP280;62039;50.000;9.064;2022-08-11T05:30:37;100916.13;;;20.08
73734;BMP280;62039;50.000;9.064;2022-08-11T05:33:09;100929.56;;;20.13
73734;BMP280;62039;50.000;9.064;2022-08-11T05:35:40;100924.66;;;20.17
73734;BMP280;62039;50.000;9.064;2022-08-11T05:38:33;100927.53;;;20.22
73734;BMP280;62039;50.000;9.064;2022-08-11T05:41:01;100932.00;;;20.28
73734;BMP280;62039;50.000;9.064;2022-08-11T05:43:28;100938.88;;;20.35
73734;BMP280;62039;50.000;9.064;2022-08-11T05:45:56;100934.97;;;20.45
73734;BMP280;62039;50.000;9.064;2022-08-11T05:48:35;100931.88;;;20.54
73734;BMP280;62039;50.000;9.064;2022-08-11T05:51:02;100932.22;;;20.64
73734;BMP280;62039;50.000;9.064;2022-08-11T05:53:50;100932.63;;;20.74
73734;BMP280;62039;50.000;9.064;2022-08-11T05:56:17;100931.31;;;20.84
73734;BMP280;62039;50.000;9.064;2022-08-11T05:58:46;100933.88;;;20.97
73734;BMP280;62039;50.000;9.064;2022-08-11T06:01:20;100938.53;;;21.08
73734;BMP280;62039;50.000;9.064;2022-08-11T06:03:49;100944.97;;;21.19
73734;BMP280;62039;50.000;9.064;2022-08-11T06:06:24;100936.31;;;21.30
73734;BMP280;62039;50.000;9.064;2022-08-11T06:08:55;100937.50;;;21.40
73734;BMP280;62039;50.000;9.064;2022-08-11T06:11:23;100937.78;;;21.50
73734;BMP280;62039;50.000;9.064;2022-08-11T06:14:10;100935.47;;;21.61
73734;BMP280;62039;50.000;9.064;2022-08-11T06:16:40;100932.09;;;21.72
73734;BMP280;62039;50.000;9.064;2022-08-11T06:19:07;100932.97;;;21.84
73734;BMP280;62039;50.000;9.064;2022-08-11T06:21:34;100931.84;;;21.98
73734;BMP280;62039;50.000;9.064;2022-08-11T06:24:10;100928.22;;;22.11
73734;BMP280;62039;50.000;9.064;2022-08-11T06:26:37;100929.34;;;22.21
73734;BMP280;62039;50.000;9.064;2022-08-11T06:29:26;100930.34;;;22.39
73734;BMP280;62039;50.000;9.064;2022-08-11T06:32:14;100927.53;;;22.52
73734;BMP280;62039;50.000;9.064;2022-08-11T06:34:56;100928.78;;;22.67
73734;BMP280;62039;50.000;9.064;2022-08-11T06:37:28;100922.00;;;22.83
73734;BMP280;62039;50.000;9.064;2022-08-11T06:40:07;100914.75;;;23.02
73734;BMP280;62039;50.000;9.064;2022-08-11T06:42:45;100922.69;;;23.20
73734;BMP280;62039;50.000;9.064;2022-08-11T06:45:23;100908.47;;;23.38
73734;BMP280;62039;50.000;9.064;2022-08-11T06:47:52;100908.56;;;23.55
73734;BMP280;62039;50.000;9.064;2022-08-11T06:50:21;100906.59;;;23.73
73734;BMP280;62039;50.000;9.064;2022-08-11T06:52:51;100907.03;;;23.94
73734;BMP280;62039;50.000;9.064;2022-08-11T06:55:23;100909.56;;;24.12
73734;BMP280;62039;50.000;9.064;2022-08-11T06:58:12;100906.25;;;24.33
73734;BMP280;62039;50.000;9.064;2022-08-11T07:00:39;100907.13;;;24.50
73734;BMP280;62039;50.000;9.064;2022-08-11T07:03:09;100903.22;;;24.70
73734;BMP280;62039;50.000;9.064;2022-08-11T07:05:44;100899.28;;;24.89
73734;BMP280;62039;50.000;9.064;2022-08-11T07:11:26;100898.84;;;25.25
73734;BMP280;62039;50.000;9.064;2022-08-11T07:14:00;100906.59;;;25.43
73734;BMP280;62039;50.000;9.064;2022-08-11T07:16:28;100906.00;;;25.58
73734;BMP280;62039;50.000;9.064;2022-08-11T07:18:59;100903.31;;;25.75
73734;BMP280;62039;50.000;9.064;2022-08-11T07:21:30;100908.63;;;25.92
73734;BMP280;62039;50.000;9.064;2022-08-11T07:24:24;100906.94;;;26.07
73734;BMP280;62039;50.000;9.064;2022-08-11T07:27:14;100895.38;;;26.24
73734;BMP280;62039;50.000;9.064;2022-08-11T07:29:45;100906.25;;;26.39
73734;BMP280;62039;50.000;9.064;2022-08-11T07:32:16;100895.69;;;26.54
73734;BMP280;62039;50.000;9.064;2022-08-11T07:34:47;100902.25;;;26.68
73734;BMP280;62039;50.000;9.064;2022-08-11T07:37:16;100901.34;;;26.84
73734;BMP280;62039;50.000;9.064;2022-08-11T07:39:45;100895.56;;;26.97
73734;BMP280;62039;50.000;9.064;2022-08-11T07:42:18;100893.81;;;27.13
73734;BMP280;62039;50.000;9.064;2022-08-11T07:44:47;100893.38;;;27.26
73734;BMP280;62039;50.000;9.064;2022-08-11T07:47:14;100895.38;;;27.41
73734;BMP280;62039;50.000;9.064;2022-08-11T07:49:44;100887.38;;;27.56
73734;BMP280;62039;50.000;9.064;2022-08-11T07:52:11;100889.38;;;27.71
73734;BMP280;62039;50.000;9.064;2022-08-11T07:54:39;100892.94;;;27.87
73734;BMP280;62039;50.000;9.064;2022-08-11T07:57:07;100885.75;;;28.02
73734;BMP280;62039;50.000;9.064;2022-08-11T07:59:56;100886.09;;;28.21
73734;BMP280;62039;50.000;9.064;2022-08-11T08:02:30;100884.28;;;28.37
73734;BMP280;62039;50.000;9.064;2022-08-11T08:04:57;100884.56;;;28.56
73734;BMP280;62039;50.000;9.064;2022-08-11T08:07:24;100876.00;;;28.74
73734;BMP280;62039;50.000;9.064;2022-08-11T08:09:52;100880.00;;;28.91
73734;BMP280;62039;50.000;9.064;2022-08-11T08:12:21;100887.28;;;29.11
73734;BMP280;62039;50.000;9.064;2022-08-11T08:14:49;100884.03;;;29.29
73734;BMP280;62039;50.000;9.064;2022-08-11T08:17:18;100881.28;;;29.50
73734;BMP280;62039;50.000;9.064;2022-08-11T08:19:47;100876.94;;;29.69
73734;BMP280;62039;50.000;9.064;2022-08-11T08:22:15;100875.25;;;29.88
73734;BMP280;62039;50.000;9.064;2022-08-11T08:25:04;100876.78;;;30.10
73734;BMP280;62039;50.000;9.064;2022-08-11T08:27:31;100883.13;;;30.29
73734;BMP280;62039;50.000;9.064;2022-08-11T08:29:59;100881.66;;;30.46
73734;BMP280;62039;50.000;9.064;2022-08-11T08:32:27;100879.13;;;30.65
73734;BMP280;62039;50.000;9.064;2022-08-11T08:34:55;100878.72;;;30.82
73734;BMP280;62039;50.000;9.064;2022-08-11T08:37:23;100871.59;;;30.96
73734;BMP280;62039;50.000;9.064;2022-08-11T08:40:12;100874.97;;;31.12
73734;BMP280;62039;50.000;9.064;2022-08-11T08:42:45;100872.66;;;31.24
73734;BMP280;62039;50.000;9.064;2022-08-11T08:45:13;100872.53;;;31.34
73734;BMP280;62039;50.000;9.064;2022-08-11T08:47:45;100867.88;;;31.45
73734;BMP280;62039;50.000;9.064;2022-08-11T08:50:20;100863.69;;;31.57
73734;BMP280;62039;50.000;9.064;2022-08-11T08:52:55;100864.34;;;31.68
73734;BMP280;62039;50.000;9.064;2022-08-11T08:55:26;100863.97;;;31.80
73734;BMP280;62039;50.000;9.064;2022-08-11T08:57:54;100862.75;;;31.91
73734;BMP280;62039;50.000;9.064;2022-08-11T09:00:22;100853.09;;;32.04
73734;BMP280;62039;50.000;9.064;2022-08-11T09:02:51;100856.97;;;32.16
73734;BMP280;62039;50.000;9.064;2022-08-11T09:05:18;100851.13;;;32.28
73734;BMP280;62039;50.000;9.064;2022-08-11T09:07:46;100849.63;;;32.41
73734;BMP280;62039;50.000;9.064;2022-08-11T09:10:18;100841.03;;;32.52
73734;BMP280;62039;50.000;9.064;2022-08-11T09:12:45;100847.06;;;32.63
73734;BMP280;62039;50.000;9.064;2022-08-11T09:15:13;100846.31;;;32.76
73734;BMP280;62039;50.000;9.064;2022-08-11T09:17:47;100847.16;;;32.90
73734;BMP280;62039;50.000;9.064;2022-08-11T09:20:18;100841.25;;;33.02
73734;BMP280;62039;50.000;9.064;2022-08-11T09:22:46;100847.03;;;33.14
73734;BMP280;62039;50.000;9.064;2022-08-11T09:25:33;100843.81;;;33.26
73734;BMP280;62039;50.000;9.064;2022-08-11T09:28:01;100839.78;;;33.37
73734;BMP280;62039;50.000;9.064;2022-08-11T09:30:28;100845.28;;;33.45
73734;BMP280;62039;50.000;9.064;2022-08-11T09:32:56;100835.19;;;33.51
73734;BMP280;62039;50.000;9.064;2022-08-11T09:35:26;100828.56;;;33.57
73734;BMP280;62039;50.000;9.064;2022-08-11T09:37:54;100831.19;;;33.62
73734;BMP280;62039;50.000;9.064;2022-08-11T09:40:24;100833.78;;;33.67
73734;BMP280;62039;50.000;9.064;2022-08-11T09:42:53;100833.16;;;33.70
73734;BMP280;62039;50.000;9.064;2022-08-11T09:45:20;100820.13;;;33.72
73734;BMP280;62039;50.000;9.064;2022-08-11T09:47:47;100823.81;;;33.76
73734;BMP280;62039;50.000;9.064;2022-08-11T09:50:14;100827.53;;;33.80
73734;BMP280;62039;50.000;9.064;2022-08-11T09:52:44;100834.44;;;33.86
73734;BMP280;62039;50.000;9.064;2022-08-11T09:55:31;100818.06;;;33.91
73734;BMP280;62039;50.000;9.064;2022-08-11T09:57:59;100833.09;;;33.98
73734;BMP280;62039;50.000;9.064;2022-08-11T10:00:30;100829.50;;;34.02
73734;BMP280;62039;50.000;9.064;2022-08-11T10:02:58;100818.84;;;34.06
73734;BMP280;62039;50.000;9.064;2022-08-11T10:05:25;100823.31;;;34.10
73734;BMP280;62039;50.000;9.064;2022-08-11T10:07:53;100825.44;;;34.13
73734;BMP280;62039;50.000;9.064;2022-08-11T10:10:20;100827.84;;;34.15
73734;BMP280;62039;50.000;9.064;2022-08-11T10:12:49;100821.31;;;34.16
73734;BMP280;62039;50.000;9.064;2022-08-11T10:15:18;100824.81;;;34.16
73734;BMP280;62039;50.000;9.064;2022-08-11T10:17:47;100821.31;;;34.16
73734;BMP280;62039;50.000;9.064;2022-08-11T10:20:15;100812.84;;;34.17
73734;BMP280;62039;50.000;9.064;2022-08-11T10:22:41;100806.63;;;34.17
73734;BMP280;62039;50.000;9.064;2022-08-11T10:25:10;100802.00;;;34.17
73734;BMP280;62039;50.000;9.064;2022-08-11T10:27:38;100796.00;;;34.20
73734;BMP280;62039;50.000;9.064;2022-08-11T10:30:28;100796.66;;;34.26
73734;BMP280;62039;50.000;9.064;2022-08-11T10:32:55;100804.66;;;34.31
73734;BMP280;62039;50.000;9.064;2022-08-11T10:35:26;100801.88;;;34.36
73734;BMP280;62039;50.000;9.064;2022-08-11T10:37:53;100799.03;;;34.41
73734;BMP280;62039;50.000;9.064;2022-08-11T10:40:37;100783.94;;;34.49
73734;BMP280;62039;50.000;9.064;2022-08-11T10:43:05;100785.09;;;34.56
73734;BMP280;62039;50.000;9.064;2022-08-11T10:45:34;100783.19;;;34.65
73734;BMP280;62039;50.000;9.064;2022-08-11T10:48:03;100778.97;;;34.73
73734;BMP280;62039;50.000;9.064;2022-08-11T10:50:31;100779.81;;;34.82
73734;BMP280;62039;50.000;9.064;2022-08-11T10:52:59;100781.41;;;34.92
73734;BMP280;62039;50.000;9.064;2022-08-11T10:55:26;100769.00;;;34.99
73734;BMP280;62039;50.000;9.064;2022-08-11T10:57:54;100755.47;;;35.08
73734;BMP280;62039;50.000;9.064;2022-08-11T11:00:31;100755.03;;;35.15
73734;BMP280;62039;50.000;9.064;2022-08-11T11:02:59;100746.41;;;35.21
73734;BMP280;62039;50.000;9.064;2022-08-11T11:05:46;100756.81;;;35.28
73734;BMP280;62039;50.000;9.064;2022-08-11T11:08:36;100750.09;;;35.34
73734;BMP280;62039;50.000;9.064;2022-08-11T11:11:05;100736.38;;;35.39
73734;BMP280;62039;50.000;9.064;2022-08-11T11:13:35;100735.09;;;35.45
73734;BMP280;62039;50.000;9.064;2022-08-11T11:16:02;100733.03;;;35.51
73734;BMP280;62039;50.000;9.064;2022-08-11T11:18:31;100741.53;;;35.58
73734;BMP280;62039;50.000;9.064;2022-08-11T11:21:04;100734.81;;;35.64
73734;BMP280;62039;50.000;9.064;2022-08-11T11:23:36;100734.00;;;35.72
73734;BMP280;62039;50.000;9.064;2022-08-11T11:26:20;100723.44;;;35.79
73734;BMP280;62039;50.000;9.064;2022-08-11T11:29:24;100720.25;;;35.85
73734;BMP280;62039;50.000;9.064;2022-08-11T11:32:08;100719.63;;;35.97
73734;BMP280;62039;50.000;9.064;2022-08-11T11:34:45;100731.63;;;36.05
73734;BMP280;62039;50.000;9.064;2022-08-11T11:37:19;100724.88;;;36.11
73734;BMP280;62039;50.000;9.064;2022-08-11T11:39:48;100713.50;;;36.17
73734;BMP280;62039;50.000;9.064;2022-08-11T11:42:15;100721.97;;;36.25
73734;BMP280;62039;50.000;9.064;2022-08-11T11:44:44;100704.38;;;36.31
73734;BMP280;62039;50.000;9.064;2022-08-11T11:47:13;100693.31;;;36.36
73734;BMP280;62039;50.000;9.064;2022-08-11T11:49:41;100698.25;;;36.42
73734;BMP280;62039;50.000;9.064;2022-08-11T11:52:13;100689.09;;;36.47
73734;BMP280;62039;50.000;9.064;2022-08-11T11:54:40;100684.47;;;36.47
73734;BMP280;62039;50.000;9.064;2022-08-11T11:57:07;100694.09;;;36.45
73734;BMP280;62039;50.000;9.064;2022-08-11T11:59:34;100687.06;;;36.44
73734;BMP280;62039;50.000;9.064;2022-08-11T12:02:03;100678.88;;;36.44
73734;BMP280;62039;50.000;9.064;2022-08-11T12:04:40;100679.34;;;36.46
73734;BMP280;62039;50.000;9.064;2022-08-11T12:07:09;100677.41;;;36.46
73734;BMP280;62039;50.000;9.064;2022-08-11T12:09:36;100680.63;;;36.48
73734;BMP280;62039;50.000;9.064;2022-08-11T12:12:04;100659.66;;;36.49
73734;BMP280;62039;50.000;9.064;2022-08-11T12:14:31;100666.69;;;36.50
73734;BMP280;62039;50.000;9.064;2022-08-11T12:16:58;100661.38;;;36.53
73734;BMP280;62039;50.000;9.064;2022-08-11T12:19:26;100653.72;;;36.55
73734;BMP280;62039;50.000;9.064;2022-08-11T12:21:54;100666.81;;;36.53
73734;BMP280;62039;50.000;9.064;2022-08-11T12:24:27;100660.59;;;36.53
73734;BMP280;62039;50.000;9.064;2022-08-11T12:26:55;100653.59;;;36.52
73734;BMP280;62039;50.000;9.064;2022-08-11T12:29:42;100640.31;;;36.50
73734;BMP280;62039;50.000;9.064;2022-08-11T12:32:09;100646.53;;;36.51
73734;BMP280;62039;50.000;9.064;2022-08-11T12:34:38;100644.94;;;36.50
73734;BMP280;62039;50.000;9.064;2022-08-11T12:37:05;100637.91;;;36.49
73734;BMP280;62039;50.000;9.064;2022-08-11T12:39:34;100641.41;;;36.49
73734;BMP280;62039;50.000;9.064;2022-08-11T12:42:22;100634.06;;;36.50
73734;BMP280;62039;50.000;9.064;2022-08-11T12:44:53;100621.72;;;36.52
73734;BMP280;62039;50.000;9.064;2022-08-11T12:47:21;100623.19;;;36.50
73734;BMP280;62039;50.000;9.064;2022-08-11T12:49:50;100634.88;;;36.50
73734;BMP280;62039;50.000;9.064;2022-08-11T12:52:21;100618.38;;;36.47
73734;BMP280;62039;50.000;9.064;2022-08-11T12:54:55;100619.50;;;36.46
73734;BMP280;62039;50.000;9.064;2022-08-11T12:57:27;100622.91;;;36.43
73734;BMP280;62039;50.000;9.064;2022-08-11T13:00:04;100616.97;;;36.41
73734;BMP280;62039;50.000;9.064;2022-08-11T13:02:31;100613.47;;;36.40
73734;BMP280;62039;50.000;9.064;2022-08-11T13:05:06;100607.91;;;36.37
73734;BMP280;62039;50.000;9.064;2022-08-11T13:07:34;100616.25;;;36.32
73734;BMP280;62039;50.000;9.064;2022-08-11T13:10:18;100612.06;;;36.26
73734;BMP280;62039;50.000;9.064;2022-08-11T13:12:44;100610.22;;;36.17
73734;BMP280;62039;50.000;9.064;2022-08-11T13:15:14;100604.13;;;36.12
73734;BMP280;62039;50.000;9.064;2022-08-11T13:17:43;100598.88;;;36.07
73734;BMP280;62039;50.000;9.064;2022-08-11T13:20:11;100606.91;;;36.03
73734;BMP280;62039;50.000;9.064;2022-08-11T13:22:40;100595.44;;;35.98
73734;BMP280;62039;50.000;9.064;2022-08-11T13:25:08;100589.84;;;35.94
73734;BMP280;62039;50.000;9.064;2022-08-11T13:27:40;100585.06;;;35.91
73734;BMP280;62039;50.000;9.064;2022-08-11T13:30:08;100583.44;;;35.90
73734;BMP280;62039;50.000;9.064;2022-08-11T13:32:35;100594.00;;;35.92
73734;BMP280;62039;50.000;9.064;2022-08-11T13:35:02;100585.06;;;35.91
73734;BMP280;62039;50.000;9.064;2022-08-11T13:37:35;100575.28;;;35.90
73734;BMP280;62039;50.000;9.064;2022-08-11T13:40:22;100583.44;;;35.90
73734;BMP280;62039;50.000;9.064;2022-08-11T13:43:09;100562.81;;;35.89
73734;BMP280;62039;50.000;9.064;2022-08-11T13:45:38;100565.69;;;35.93
73734;BMP280;62039;50.000;9.064;2022-08-11T13:48:07;100562.03;;;35.97
73734;BMP280;62039;50.000;9.064;2022-08-11T13:50:35;100560.09;;;35.98
73734;BMP280;62039;50.000;9.064;2022-08-11T13:53:03;100562.66;;;35.94
73734;BMP280;62039;50.000;9.064;2022-08-11T13:55:30;100557.88;;;35.91
73734;BMP280;62039;50.000;9.064;2022-08-11T13:58:17;100561.41;;;35.83
73734;BMP280;62039;50.000;9.064;2022-08-11T14:01:06;100547.22;;;35.77
73734;BMP280;62039;50.000;9.064;2022-08-11T14:03:54;100552.00;;;35.72
73734;BMP280;62039;50.000;9.064;2022-08-11T14:06:49;100542.44;;;35.66
73734;BMP280;62039;50.000;9.064;2022-08-11T14:09:22;100544.22;;;35.62
73734;BMP280;62039;50.000;9.064;2022-08-11T14:11:52;100529.03;;;35.61
73734;BMP280;62039;50.000;9.064;2022-08-11T14:14:43;100537.38;;;35.56
73734;BMP280;62039;50.000;9.064;2022-08-11T14:17:14;100532.56;;;35.53
73734;BMP280;62039;50.000;9.064;2022-08-11T14:20:04;100520.13;;;35.43
73734;BMP280;62039;50.000;9.064;2022-08-11T14:22:52;100524.44;;;35.35
73734;BMP280;62039;50.000;9.064;2022-08-11T14:25:20;100524.94;;;35.29
73734;BMP280;62039;50.000;9.064;2022-08-11T14:28:06;100518.41;;;35.21
73734;BMP280;62039;50.000;9.064;2022-08-11T14:30:53;100521.75;;;35.18
73734;BMP280;62039;50.000;9.064;2022-08-11T14:33:26;100518.09;;;35.14
73734;BMP280;62039;50.000;9.064;2022-08-11T14:36:14;100517.44;;;35.08
73734;BMP280;62039;50.000;9.064;2022-08-11T14:38:41;100524.16;;;35.02
73734;BMP280;62039;50.000;9.064;2022-08-11T14:41:09;100509.16;;;34.96
73734;BMP280;62039;50.000;9.064;2022-08-11T14:43:36;100506.44;;;34.88
73734;BMP280;62039;50.000;9.064;2022-08-11T14:46:23;100508.84;;;34.81
73734;BMP280;62039;50.000;9.064;2022-08-11T14:48:50;100504.69;;;34.75
73734;BMP280;62039;50.000;9.064;2022-08-11T14:51:18;100504.34;;;34.67
73734;BMP280;62039;50.000;9.064;2022-08-11T14:53:49;100503.22;;;34.60
73734;BMP280;62039;50.000;9.064;2022-08-11T14:56:25;100490.75;;;34.50
73734;BMP280;62039;50.000;9.064;2022-08-11T14:58:52;100494.59;;;34.41
73734;BMP280;62039;50.000;9.064;2022-08-11T15:01:19;100488.84;;;34.34
73734;BMP280;62039;50.000;9.064;2022-08-11T15:03:45;100480.66;;;34.25
73734;BMP280;62039;50.000;9.064;2022-08-11T15:06:32;100488.59;;;34.13
73734;BMP280;62039;50.000;9.064;2022-08-11T15:08:59;100499.91;;;34.06
73734;BMP280;62039;50.000;9.064;2022-08-11T15:11:29;100487.94;;;33.99
73734;BMP280;62039;50.000;9.064;2022-08-11T15:13:57;100485.97;;;33.90
73734;BMP280;62039;50.000;9.064;2022-08-11T15:16:26;100487.22;;;33.84
73734;BMP280;62039;50.000;9.064;2022-08-11T15:18:53;100477.63;;;33.78
73734;BMP280;62039;50.000;9.064;2022-08-11T15:21:19;100484.59;;;33.71